createdAt,value
2018-11-06T00:00:28.006Z,99820.20
2018-11-06T00:03:01.700Z,99818.17
2018-11-06T00:05:29.838Z,99821.64
2018-11-06T00:07:58.305Z,99825.67
2018-11-06T00:10:26.554Z,99820.43
2018-11-06T00:12:54.640Z,99828.42
2018-11-06T00:15:22.783Z,99831.11
2018-11-06T00:17:51.141Z,99823.35
2018-11-06T00:20:19.913Z,99823.87
2018-11-06T00:22:48.115Z,99830.91
2018-11-06T00:25:16.229Z,99821.39
2018-11-06T00:27:44.459Z,99819.44
2018-11-06T00:30:13.705Z,99824.44
2018-11-06T00:32:42.373Z,99821.45
2018-11-06T00:35:11.941Z,99818.96
2018-11-06T00:37:41.269Z,99824.59
2018-11-06T00:40:09.885Z,99817.86
2018-11-06T00:42:38.545Z,99818.31
2018-11-06T00:45:10.217Z,99814.11
2018-11-06T00:47:38.971Z,99803.30
2018-11-06T00:50:08.986Z,99815.25
2018-11-06T00:52:37.947Z,99812.19
2018-11-06T00:55:07.413Z,99811.73
2018-11-06T00:57:36.131Z,99814.44
2018-11-06T01:00:06.176Z,99817.28
2018-11-06T01:02:34.262Z,99817.59
2018-11-06T01:05:02.606Z,99820.92
2018-11-06T01:07:30.751Z,99823.23
2018-11-06T01:09:58.835Z,99816.00
2018-11-06T01:12:26.930Z,99818.83
2018-11-06T01:14:55.059Z,99818.02
2018-11-06T01:17:23.206Z,99811.36
2018-11-06T01:19:51.713Z,99823.59
2018-11-06T01:22:19.879Z,99828.23
2018-11-06T01:24:48.135Z,99826.95
2018-11-06T01:27:16.789Z,99830.93
2018-11-06T01:29:44.998Z,99827.99
2018-11-06T01:32:13.096Z,99823.97
2018-11-06T01:34:41.558Z,99829.34
2018-11-06T01:37:09.798Z,99827.84
2018-11-06T01:39:37.886Z,99832.16
2018-11-06T01:42:06.628Z,99833.22
2018-11-06T01:44:34.928Z,99826.69
2018-11-06T01:47:03.118Z,99825.41
2018-11-06T01:49:31.423Z,99823.61
2018-11-06T01:51:59.578Z,99824.00
2018-11-06T01:54:28.352Z,99825.31
2018-11-06T01:56:56.500Z,99823.89
2018-11-06T01:59:26.026Z,99826.20
2018-11-06T02:01:55.168Z,99830.75
2018-11-06T02:04:24.211Z,99818.20
2018-11-06T02:06:52.349Z,99812.50
2018-11-06T02:09:20.985Z,99817.97
2018-11-06T02:11:49.090Z,99818.36
2018-11-06T02:14:17.428Z,99821.78
2018-11-06T02:16:46.416Z,99822.31
2018-11-06T02:19:14.727Z,99820.45
2018-11-06T02:21:43.248Z,99825.61
2018-11-06T02:24:11.513Z,99818.82
2018-11-06T02:26:40.512Z,99813.80
2018-11-06T02:29:08.912Z,99813.62
2018-11-06T02:31:37.345Z,99814.01
2018-11-06T02:34:06.685Z,99821.28
2018-11-06T02:36:34.949Z,99816.55
2018-11-06T02:39:04.248Z,99821.98
2018-11-06T02:41:32.775Z,99823.33
2018-11-06T02:44:01.600Z,99823.65
2018-11-06T02:46:29.961Z,99826.63
2018-11-06T02:48:58.057Z,99824.92
2018-11-06T02:51:27.115Z,99828.42
2018-11-06T02:53:55.231Z,99828.67
2018-11-06T02:56:23.531Z,99828.95
2018-11-06T02:58:51.613Z,99830.37
2018-11-06T03:01:20.875Z,99825.73
2018-11-06T03:03:48.985Z,99825.16
2018-11-06T03:06:17.256Z,99829.41
2018-11-06T03:08:45.385Z,99827.30
2018-11-06T03:11:13.501Z,99829.83
2018-11-06T03:13:43.019Z,99829.12
2018-11-06T03:16:11.284Z,99830.34
2018-11-06T03:18:39.420Z,99832.52
2018-11-06T03:21:07.518Z,99836.16
2018-11-06T03:23:35.716Z,99835.11
2018-11-06T03:26:04.422Z,99830.91
2018-11-06T03:28:33.124Z,99836.28
2018-11-06T03:31:01.612Z,99840.09
2018-11-06T03:33:29.761Z,99833.92
2018-11-06T03:35:58.188Z,99837.73
2018-11-06T03:38:26.420Z,99843.02
2018-11-06T03:40:54.736Z,99850.47
2018-11-06T03:43:22.870Z,99848.94
2018-11-06T03:45:50.986Z,99850.40
2018-11-06T03:48:19.150Z,99857.63
2018-11-06T03:50:48.042Z,99856.66
2018-11-06T03:53:16.407Z,99857.28
2018-11-06T03:55:44.695Z,99867.00
2018-11-06T03:58:12.810Z,99866.39
2018-11-06T04:00:41.176Z,99873.72
2018-11-06T04:03:09.624Z,99873.45
2018-11-06T04:05:37.718Z,99871.28
2018-11-06T04:08:06.292Z,99868.73
2018-11-06T04:10:34.848Z,99878.00
2018-11-06T04:13:03.054Z,99876.01
2018-11-06T04:15:31.456Z,99885.80
2018-11-06T04:17:59.592Z,99888.93
2018-11-06T04:20:27.966Z,99878.95
2018-11-06T04:22:56.373Z,99878.85
2018-11-06T04:25:24.732Z,99881.28
2018-11-06T04:27:53.058Z,99873.23
2018-11-06T04:30:21.909Z,99862.36
2018-11-06T04:32:50.919Z,99864.34
2018-11-06T04:35:20.045Z,99862.70
2018-11-06T04:37:48.638Z,99865.96
2018-11-06T04:40:16.800Z,99863.78
2018-11-06T04:42:45.147Z,99872.17
2018-11-06T04:45:13.685Z,99873.52
2018-11-06T04:47:42.447Z,99866.13
2018-11-06T04:50:10.980Z,99867.70
2018-11-06T04:52:39.473Z,99877.22
2018-11-06T04:55:09.577Z,99873.73
2018-11-06T04:57:38.096Z,99864.05
2018-11-06T05:00:08.882Z,99861.19
2018-11-06T05:02:37.411Z,99864.56
2018-11-06T05:05:06.778Z,99859.62
2018-11-06T05:07:35.466Z,99853.13
2018-11-06T05:10:04.094Z,99852.02
2018-11-06T05:12:33.848Z,99848.27
2018-11-06T05:15:02.099Z,99850.78
2018-11-06T05:17:30.254Z,99850.67
2018-11-06T05:19:58.458Z,99849.22
2018-11-06T05:22:26.900Z,99857.16
2018-11-06T05:24:55.016Z,99862.07
2018-11-06T05:27:23.133Z,99857.33
2018-11-06T05:29:51.288Z,99855.36
2018-11-06T05:32:19.626Z,99854.88
2018-11-06T05:34:47.792Z,99855.89
2018-11-06T05:37:15.970Z,99856.40
2018-11-06T05:40:01.125Z,99864.06
2018-11-06T05:42:29.705Z,99863.34
2018-11-06T05:44:57.826Z,99862.05
2018-11-06T05:47:26.338Z,99866.81
2018-11-06T05:49:54.468Z,99860.88
2018-11-06T05:52:22.744Z,99864.17
2018-11-06T05:54:51.229Z,99863.15
2018-11-06T05:57:19.350Z,99862.48
2018-11-06T05:59:47.648Z,99866.87
2018-11-06T06:02:15.862Z,99868.58
2018-11-06T06:04:44.375Z,99875.97
2018-11-06T06:07:13.156Z,99869.25
2018-11-06T06:09:41.248Z,99883.94
2018-11-06T06:12:09.433Z,99886.02
2018-11-06T06:14:37.520Z,99889.92
2018-11-06T06:17:06.653Z,99888.98
2018-11-06T06:19:34.787Z,99890.05
2018-11-06T06:22:02.930Z,99891.77
2018-11-06T06:24:31.034Z,99886.39
2018-11-06T06:26:59.374Z,99889.78
2018-11-06T06:29:27.823Z,99887.80
2018-11-06T06:31:56.611Z,99886.06
2018-11-06T06:34:24.720Z,99890.36
2018-11-06T06:36:52.859Z,99891.80
2018-11-06T06:39:21.901Z,99887.97
2018-11-06T06:41:50.324Z,99894.91
2018-11-06T06:44:18.469Z,99891.98
2018-11-06T06:46:47.313Z,99884.52
2018-11-06T06:49:15.408Z,99894.89
2018-11-06T06:51:44.254Z,99895.42
2018-11-06T06:54:12.691Z,99898.12
2018-11-06T06:56:40.677Z,99904.60
2018-11-06T06:59:08.827Z,99906.00
2018-11-06T07:01:37.020Z,99906.23
2018-11-06T07:04:05.411Z,99912.95
2018-11-06T07:06:33.529Z,99913.80
2018-11-06T07:09:01.834Z,99919.42
2018-11-06T07:11:29.962Z,99914.92
2018-11-06T07:13:58.123Z,99913.14
2018-11-06T07:16:27.843Z,99917.98
2018-11-06T07:18:55.989Z,99918.16
2018-11-06T07:21:24.216Z,99926.81
2018-11-06T07:23:52.352Z,99928.81
2018-11-06T07:26:20.597Z,99928.30
2018-11-06T07:28:48.873Z,99931.22
2018-11-06T07:31:16.969Z,99929.03
2018-11-06T07:33:45.092Z,99931.92
2018-11-06T07:36:13.397Z,99931.17
2018-11-06T07:38:41.557Z,99929.81
2018-11-06T07:41:10.621Z,99932.52
2018-11-06T07:43:38.796Z,99929.28
2018-11-06T07:46:07.578Z,99938.09
2018-11-06T07:48:35.719Z,99935.04
2018-11-06T07:51:03.903Z,99937.66
2018-11-06T07:53:32.074Z,99934.67
2018-11-06T07:56:00.352Z,99934.00
2018-11-06T07:58:29.370Z,99938.48
2018-11-06T08:00:58.240Z,99931.23
2018-11-06T08:03:26.374Z,99937.70
2018-11-06T08:05:54.540Z,99939.77
2018-11-06T08:08:23.435Z,99936.78
2018-11-06T08:10:51.504Z,99938.56
2018-11-06T08:13:19.650Z,99942.31
2018-11-06T08:15:48.448Z,99938.08
2018-11-06T08:18:16.631Z,99933.16
2018-11-06T08:20:46.053Z,99930.04
2018-11-06T08:23:14.074Z,99940.36
2018-11-06T08:25:43.039Z,99944.41
2018-11-06T08:28:11.186Z,99946.23
2018-11-06T08:30:39.450Z,99948.89
2018-11-06T08:33:07.181Z,99948.86
2018-11-06T08:35:35.310Z,99942.52
2018-11-06T08:38:03.457Z,99944.83
2018-11-06T08:40:31.959Z,99946.17
2018-11-06T08:43:00.093Z,99942.07
2018-11-06T08:45:28.191Z,99951.34
2018-11-06T08:47:56.352Z,99943.22
2018-11-06T08:50:24.689Z,99936.12
2018-11-06T08:52:52.842Z,99935.45
2018-11-06T08:55:21.070Z,99927.81
2018-11-06T08:57:49.184Z,99920.16
2018-11-06T09:00:18.527Z,99923.42
2018-11-06T09:02:47.534Z,99921.77
2018-11-06T09:05:16.629Z,99919.27
2018-11-06T09:07:45.486Z,99910.86
2018-11-06T09:10:14.594Z,99917.80
2018-11-06T09:12:42.963Z,99917.78
2018-11-06T09:15:13.393Z,99915.36
2018-11-06T09:17:41.585Z,99921.45
2018-11-06T09:20:11.431Z,99916.41
2018-11-06T09:22:39.711Z,99916.96
2018-11-06T09:25:10.131Z,99918.69
2018-11-06T09:27:38.751Z,99914.30
2018-11-06T09:30:12.390Z,99924.63
2018-11-06T09:32:40.640Z,99924.45
2018-11-06T09:35:10.720Z,99926.81
2018-11-06T09:37:41.000Z,99930.89
2018-11-06T09:40:12.593Z,99927.74
2018-11-06T09:42:40.810Z,99932.77
2018-11-06T09:45:10.347Z,99923.14
2018-11-06T09:47:39.208Z,99919.72
2018-11-06T09:50:12.951Z,99908.76
2018-11-06T09:52:42.905Z,99909.52
2018-11-06T09:55:11.223Z,99909.42
2018-11-06T09:57:39.495Z,99915.16
2018-11-06T10:00:12.306Z,99913.51
2018-11-06T10:02:40.706Z,99914.51
2018-11-06T10:05:09.645Z,99908.48
2018-11-06T10:07:38.120Z,99910.66
2018-11-06T10:10:09.298Z,99908.99
2018-11-06T10:12:37.599Z,99904.47
2018-11-06T10:15:08.599Z,99899.65
2018-11-06T10:17:38.018Z,99908.58
2018-11-06T10:20:07.932Z,99905.69
2018-11-06T10:22:37.573Z,99899.64
2018-11-06T10:25:06.439Z,99898.88
2018-11-06T10:27:35.694Z,99893.05
2018-11-06T10:30:04.667Z,99892.47
2018-11-06T10:32:33.572Z,99897.89
2018-11-06T10:35:01.694Z,99892.41
2018-11-06T10:37:30.243Z,99886.13
2018-11-06T10:39:59.196Z,99892.19
2018-11-06T10:42:28.282Z,99887.73
2018-11-06T10:44:56.414Z,99888.47
2018-11-06T10:47:24.592Z,99887.32
2018-11-06T10:49:52.706Z,99887.16
2018-11-06T10:52:20.977Z,99875.11
2018-11-06T10:54:50.055Z,99883.55
2018-11-06T10:57:18.831Z,99874.73
2018-11-06T10:59:46.973Z,99863.05
2018-11-06T11:02:20.799Z,99864.27
2018-11-06T11:04:49.631Z,99857.44
2018-11-06T11:07:18.318Z,99852.52
2018-11-06T11:09:46.481Z,99852.25
2018-11-06T11:12:14.776Z,99847.22
2018-11-06T11:14:42.935Z,99848.72
2018-11-06T11:17:11.551Z,99842.77
2018-11-06T11:19:39.692Z,99836.29
2018-11-06T11:22:08.087Z,99837.11
2018-11-06T11:24:36.399Z,99836.23
2018-11-06T11:27:06.073Z,99836.80
2018-11-06T11:29:34.401Z,99833.94
2018-11-06T11:32:02.693Z,99837.54
2018-11-06T11:34:30.975Z,99840.87
2018-11-06T11:36:59.446Z,99831.76
2018-11-06T11:39:27.913Z,99834.36
2018-11-06T11:41:56.019Z,99828.38
2018-11-06T11:44:24.593Z,99830.35
2018-11-06T11:46:52.925Z,99838.45
2018-11-06T11:49:21.170Z,99833.73
2018-11-06T11:51:49.297Z,99837.52
2018-11-06T11:54:17.625Z,99827.39
2018-11-06T11:56:45.761Z,99829.83
2018-11-06T11:59:14.610Z,99838.23
2018-11-06T12:01:42.717Z,99836.38
2018-11-06T12:04:11.022Z,99835.58
2018-11-06T12:06:40.702Z,99831.52
2018-11-06T12:09:09.641Z,99826.44
2018-11-06T12:11:38.040Z,99820.91
2018-11-06T12:14:06.680Z,99822.89
2018-11-06T12:16:35.701Z,99820.75
2018-11-06T12:19:04.042Z,99819.73
2018-11-06T12:21:32.200Z,99826.56
2018-11-06T12:24:01.074Z,99830.65
2018-11-06T12:26:29.217Z,99828.80
2018-11-06T12:28:57.532Z,99832.08
2018-11-06T12:31:25.676Z,99828.34
2018-11-06T12:33:53.972Z,99836.31
2018-11-06T12:36:22.196Z,99825.04
2018-11-06T12:38:50.967Z,99821.08
2018-11-06T12:41:19.068Z,99822.64
2018-11-06T12:43:47.412Z,99817.32
2018-11-06T12:46:16.082Z,99813.91
2018-11-06T12:48:45.117Z,99806.73
2018-11-06T12:51:13.250Z,99806.00
2018-11-06T12:53:41.538Z,99811.31
2018-11-06T12:56:09.681Z,99808.19
2018-11-06T12:58:37.968Z,99803.36
2018-11-06T13:01:06.554Z,99803.63
2018-11-06T13:03:34.960Z,99798.38
2018-11-06T13:06:03.164Z,99797.28
2018-11-06T13:08:31.288Z,99795.93
2018-11-06T13:10:59.499Z,99792.12
2018-11-06T13:13:27.880Z,99787.98
2018-11-06T13:15:57.220Z,99794.17
2018-11-06T13:18:25.558Z,99792.23
2018-11-06T13:20:53.779Z,99793.11
2018-11-06T13:23:22.050Z,99791.78
2018-11-06T13:25:50.525Z,99795.97
2018-11-06T13:28:19.346Z,99794.60
2018-11-06T13:30:47.729Z,99788.09
2018-11-06T13:33:16.773Z,99788.37
2018-11-06T13:35:45.069Z,99784.86
2018-11-06T13:38:13.308Z,99777.62
2018-11-06T13:40:41.699Z,99774.02
2018-11-06T13:43:09.890Z,99776.31
2018-11-06T13:45:39.228Z,99770.02
2018-11-06T13:48:07.921Z,99759.86
2018-11-06T13:50:36.889Z,99752.79
2018-11-06T13:53:05.548Z,99750.56
2018-11-06T13:55:34.003Z,99749.25
2018-11-06T13:58:02.141Z,99748.79
2018-11-06T14:00:31.057Z,99747.44
2018-11-06T14:02:59.820Z,99745.89
2018-11-06T14:05:28.180Z,99752.94
2018-11-06T14:07:56.405Z,99754.88
2018-11-06T14:10:24.557Z,99757.14
2018-11-06T14:12:52.695Z,99751.69
2018-11-06T14:15:22.476Z,99751.47
2018-11-06T14:17:50.630Z,99748.77
2018-11-06T14:20:18.970Z,99751.00
2018-11-06T14:22:47.102Z,99756.33
2018-11-06T14:25:16.463Z,99758.44
2018-11-06T14:27:44.558Z,99747.65
2018-11-06T14:30:15.660Z,99748.72
2018-11-06T14:32:44.072Z,99751.84
2018-11-06T14:35:14.007Z,99747.83
2018-11-06T14:37:42.711Z,99743.53
2018-11-06T14:40:12.183Z,99747.97
2018-11-06T14:42:40.804Z,99751.67
2018-11-06T14:45:11.609Z,99750.14
2018-11-06T14:47:40.128Z,99738.50
2018-11-06T14:50:09.325Z,99753.92
2018-11-06T14:52:37.760Z,99758.50
2018-11-06T14:55:08.748Z,99759.84
2018-11-06T14:57:37.055Z,99766.81
2018-11-06T15:00:11.710Z,99769.11
2018-11-06T15:02:42.702Z,99772.52
2018-11-06T15:05:10.882Z,99771.40
2018-11-06T15:07:39.113Z,99770.81
2018-11-06T15:10:08.565Z,99776.55
2018-11-06T15:12:37.387Z,99781.08
2018-11-06T15:15:08.771Z,99777.34
2018-11-06T15:17:38.220Z,99768.19
2018-11-06T15:20:09.571Z,99766.06
2018-11-06T15:22:38.119Z,99768.56
2018-11-06T15:25:07.390Z,99759.88
2018-11-06T15:27:35.606Z,99757.97
2018-11-06T15:30:04.565Z,99752.78
2018-11-06T15:32:32.721Z,99748.72
2018-11-06T15:35:01.057Z,99750.34
2018-11-06T15:37:29.369Z,99751.95
2018-11-06T15:39:58.072Z,99761.73
2018-11-06T15:42:26.455Z,99764.67
2018-11-06T15:44:54.999Z,99766.53
2018-11-06T15:47:23.337Z,99758.08
2018-11-06T15:49:51.567Z,99766.22
2018-11-06T15:52:19.919Z,99762.36
2018-11-06T15:54:48.998Z,99766.96
2018-11-06T15:57:18.038Z,99762.01
2018-11-06T15:59:46.272Z,99765.75
2018-11-06T16:02:14.592Z,99764.66
2018-11-06T16:04:46.296Z,99771.39
2018-11-06T16:07:17.236Z,99769.41
2018-11-06T16:09:46.700Z,99775.49
2018-11-06T16:12:15.201Z,99777.66
2018-11-06T16:14:43.809Z,99768.88
2018-11-06T16:17:11.973Z,99769.94
2018-11-06T16:19:40.360Z,99772.36
2018-11-06T16:22:08.574Z,99771.70
2018-11-06T16:24:38.626Z,99768.45
2018-11-06T16:27:06.990Z,99770.45
2018-11-06T16:29:35.180Z,99775.58
2018-11-06T16:32:03.314Z,99776.86
2018-11-06T16:34:31.450Z,99775.20
2018-11-06T16:36:59.727Z,99769.12
2018-11-06T16:39:29.595Z,99784.78
2018-11-06T16:41:57.914Z,99782.63
2018-11-06T16:44:26.358Z,99780.19
2018-11-06T16:46:54.950Z,99782.02
2018-11-06T16:49:23.164Z,99786.98
2018-11-06T16:51:51.347Z,99785.00
2018-11-06T16:54:19.846Z,99784.42
2018-11-06T16:56:48.067Z,99791.61
2018-11-06T16:59:16.178Z,99790.89
2018-11-06T17:01:44.404Z,99789.78
2018-11-06T17:04:13.176Z,99779.31
2018-11-06T17:06:46.852Z,99784.56
2018-11-06T17:09:16.568Z,99786.97
2018-11-06T17:11:45.410Z,99787.22
2018-11-06T17:14:13.837Z,99789.50
2018-11-06T17:16:42.728Z,99795.34
2018-11-06T17:19:12.294Z,99801.50
2018-11-06T17:21:40.514Z,99796.95
2018-11-06T17:24:08.656Z,99796.27
2018-11-06T17:26:36.773Z,99786.72
2018-11-06T17:29:05.726Z,99786.38
2018-11-06T17:31:34.145Z,99783.35
2018-11-06T17:34:02.659Z,99786.89
2018-11-06T17:36:31.095Z,99776.98
2018-11-06T17:38:59.506Z,99785.16
2018-11-06T17:41:27.584Z,99785.59
2018-11-06T17:43:56.452Z,99782.31
2018-11-06T17:46:24.615Z,99783.52
2018-11-06T17:48:53.472Z,99779.84
2018-11-06T17:51:21.833Z,99784.48
2018-11-06T17:53:50.037Z,99780.08
2018-11-06T17:56:18.276Z,99789.14
2018-11-06T17:58:46.452Z,99792.42
2018-11-06T18:01:14.683Z,99790.14
2018-11-06T18:03:43.193Z,99796.26
2018-11-06T18:06:11.286Z,99792.80
2018-11-06T18:08:39.815Z,99793.14
2018-11-06T18:11:08.638Z,99797.03
2018-11-06T18:13:37.764Z,99783.84
2018-11-06T18:16:06.306Z,99792.91
2018-11-06T18:18:35.156Z,99785.38
2018-11-06T18:21:03.377Z,99785.45
2018-11-06T18:23:31.645Z,99784.88
2018-11-06T18:25:59.850Z,99785.78
2018-11-06T18:28:28.062Z,99786.09
2018-11-06T18:30:56.307Z,99789.41
2018-11-06T18:33:25.511Z,99784.86
2018-11-06T18:35:53.840Z,99788.32
2018-11-06T18:38:22.841Z,99787.55
2018-11-06T18:40:50.975Z,99784.82
2018-11-06T18:43:19.116Z,99786.85
2018-11-06T18:45:47.390Z,99791.95
2018-11-06T18:48:15.783Z,99788.63
2018-11-06T18:51:11.619Z,99796.67
2018-11-06T18:53:40.566Z,99797.31
2018-11-06T18:56:08.643Z,99798.05
2018-11-06T18:58:37.834Z,99800.60
2018-11-06T19:01:06.024Z,99802.63
2018-11-06T19:03:35.248Z,99811.27
2018-11-06T19:06:03.473Z,99807.83
2018-11-06T19:08:32.516Z,99814.06
2018-11-06T19:11:01.363Z,99810.29
2018-11-06T19:13:29.700Z,99802.33
2018-11-06T19:15:58.343Z,99812.34
2018-11-06T19:18:26.522Z,99806.91
2018-11-06T19:20:54.621Z,99806.56
2018-11-06T19:23:23.725Z,99808.67
2018-11-06T19:25:51.814Z,99804.10
2018-11-06T19:28:19.904Z,99793.41
2018-11-06T19:30:48.055Z,99795.48
2018-11-06T19:33:16.188Z,99797.45
2018-11-06T19:35:44.390Z,99793.95
2018-11-06T19:38:12.519Z,99799.49
2018-11-06T19:40:40.774Z,99795.89
2018-11-06T19:43:08.846Z,99789.39
2018-11-06T19:45:36.984Z,99799.42
2018-11-06T19:48:05.498Z,99796.48
2018-11-06T19:50:33.634Z,99789.45
2018-11-06T19:53:01.846Z,99791.33
2018-11-06T19:55:30.053Z,99799.55
2018-11-06T19:57:58.187Z,99798.45
2018-11-06T20:00:26.349Z,99797.51
2018-11-06T20:02:54.578Z,99799.86
2018-11-06T20:05:22.793Z,99802.85
2018-11-06T20:07:51.527Z,99797.94
2018-11-06T20:10:22.257Z,99801.05
2018-11-06T20:12:51.425Z,99801.58
2018-11-06T20:15:19.718Z,99796.10
2018-11-06T20:17:48.821Z,99803.33
2018-11-06T20:20:20.439Z,99803.11
2018-11-06T20:22:48.635Z,99803.83
2018-11-06T20:25:16.782Z,99799.07
2018-11-06T20:27:45.327Z,99797.44
2018-11-06T20:30:16.341Z,99799.03
2018-11-06T20:32:44.555Z,99797.40
2018-11-06T20:35:13.193Z,99798.83
2018-11-06T20:37:41.418Z,99795.22
2018-11-06T20:40:13.191Z,99803.47
2018-11-06T20:42:42.036Z,99797.48
2018-11-06T20:45:12.102Z,99803.55
2018-11-06T20:47:40.463Z,99802.52
2018-11-06T20:50:11.699Z,99797.80
2018-11-06T20:52:39.997Z,99798.08
2018-11-06T20:55:08.848Z,99792.64
2018-11-06T20:57:36.950Z,99802.41
2018-11-06T21:00:08.241Z,99797.01
2018-11-06T21:02:36.336Z,99790.34
2018-11-06T21:05:04.947Z,99791.92
2018-11-06T21:07:33.320Z,99789.03
2018-11-06T21:10:01.466Z,99786.45
2018-11-06T21:12:29.736Z,99786.58
2018-11-06T21:14:57.884Z,99782.02
2018-11-06T21:17:26.981Z,99781.13
2018-11-06T21:19:55.211Z,99778.63
2018-11-06T21:22:23.287Z,99785.80
2018-11-06T21:24:51.543Z,99784.73
2018-11-06T21:27:19.757Z,99785.92
2018-11-06T21:29:47.945Z,99782.63
2018-11-06T21:32:16.188Z,99780.11
2018-11-06T21:34:44.371Z,99776.55
2018-11-06T21:37:12.618Z,99776.61
2018-11-06T21:39:40.759Z,99776.02
2018-11-06T21:42:09.175Z,99781.56
2018-11-06T21:44:37.645Z,99772.96
2018-11-06T21:47:05.783Z,99770.19
2018-11-06T21:49:33.959Z,99776.97
2018-11-06T21:52:02.234Z,99778.31
2018-11-06T21:54:30.455Z,99768.80
2018-11-06T21:56:59.649Z,99772.08
2018-11-06T21:59:28.090Z,99774.09
2018-11-06T22:01:57.007Z,99769.81
2018-11-06T22:04:25.417Z,99772.22
2018-11-06T22:06:53.581Z,99769.41
2018-11-06T22:09:21.943Z,99769.55
2018-11-06T22:11:50.061Z,99775.49
2018-11-06T22:14:18.344Z,99777.38
2018-11-06T22:16:46.739Z,99786.50
2018-11-06T22:19:15.260Z,99772.80
2018-11-06T22:21:43.751Z,99769.83
2018-11-06T22:24:11.972Z,99773.41
2018-11-06T22:26:40.160Z,99780.50
2018-11-06T22:29:08.612Z,99775.77
2018-11-06T22:31:37.278Z,99779.67
2018-11-06T22:34:05.748Z,99781.62
2018-11-06T22:36:34.046Z,99781.47
2018-11-06T22:39:02.370Z,99788.25
2018-11-06T22:41:30.803Z,99781.53
2018-11-06T22:43:59.076Z,99777.91
2018-11-06T22:46:27.386Z,99783.82
2018-11-06T22:48:55.571Z,99791.53
2018-11-06T22:51:24.058Z,99795.87
2018-11-06T22:53:52.480Z,99804.01
2018-11-06T22:56:20.871Z,99804.30
2018-11-06T22:58:49.006Z,99812.38
2018-11-06T23:01:22.822Z,99817.70
2018-11-06T23:03:52.765Z,99820.34
2018-11-06T23:06:21.542Z,99816.67
2018-11-06T23:08:49.692Z,99817.95
2018-11-06T23:11:18.522Z,99819.68
2018-11-06T23:13:46.908Z,99824.75
2018-11-06T23:16:15.173Z,99821.11
2018-11-06T23:18:43.306Z,99826.35
2018-11-06T23:21:11.448Z,99821.48
2018-11-06T23:23:39.598Z,99825.06
2018-11-06T23:26:08.080Z,99823.86
2018-11-06T23:28:36.326Z,99825.20
2018-11-06T23:31:04.821Z,99825.16
2018-11-06T23:33:32.990Z,99824.92
2018-11-06T23:36:01.398Z,99823.77
2018-11-06T23:38:29.763Z,99828.08
2018-11-06T23:40:58.449Z,99822.14
2018-11-06T23:43:26.752Z,99822.38
2018-11-06T23:45:55.063Z,99826.27
2018-11-06T23:48:23.487Z,99824.38
2018-11-06T23:50:51.923Z,99832.98
2018-11-06T23:53:20.419Z,99826.17
2018-11-06T23:55:48.553Z,99825.21
2018-11-06T23:58:16.851Z,99822.06
